Time;durP1;ratioP1;P1;durP2;ratioP2;P2;SDS_P1;SDS_P2;PMS_P1;PMS_P2;Temp;Humidity;BMP_temperature;BMP_pressure;BME280_temperature;BME280_humidity;BME280_pressure;Samples;Min_cycle;Max_cycle;Signal;HPM_P1;HPM_P2
2021/12/22 00:02:10;;;;;;;4.70;3.60;;;0.30;99.90;;;;;;4952159;28;20178;-68
2021/12/22 00:04:43;;;;;;;7.50;6.80;;;0.40;99.90;;;;;;4953573;28;20174;-70
2021/12/22 00:07:09;;;;;;;7.20;2.30;;;0.30;99.90;;;;;;4953467;28;20286;-69
2021/12/22 00:09:35;;;;;;;12.97;3.63;;;0.30;99.90;;;;;;4953357;28;20493;-69
2021/12/22 00:12:01;;;;;;;5.23;3.37;;;0.40;99.90;;;;;;4953298;28;20556;-70
2021/12/22 00:14:26;;;;;;;3.73;2.53;;;0.50;99.90;;;;;;4953409;28;20197;-68
2021/12/22 00:16:51;;;;;;;5.73;3.83;;;0.50;99.90;;;;;;4953160;28;20248;-70
2021/12/22 00:19:17;;;;;;;2.13;1.97;;;0.50;99.90;;;;;;4953040;28;20177;-68
2021/12/22 00:21:42;;;;;;;4.47;2.67;;;0.50;99.90;;;;;;4953161;28;20330;-68
2021/12/22 00:24:08;;;;;;;5.83;2.70;;;0.40;99.90;;;;;;4953085;28;20198;-68
2021/12/22 00:26:34;;;;;;;6.17;3.73;;;0.40;99.90;;;;;;4952843;28;20249;-68
2021/12/22 00:28:59;;;;;;;3.63;3.27;;;0.40;99.90;;;;;;4952635;28;20188;-68
2021/12/22 00:31:24;;;;;;;8.30;3.50;;;0.50;99.90;;;;;;4952564;28;20673;-67
2021/12/22 00:33:52;;;;;;;3.60;3.10;;;0.50;99.90;;;;;;4952570;28;20273;-68
2021/12/22 00:36:23;;;;;;;4.57;2.47;;;0.50;99.90;;;;;;4952817;28;20257;-68
2021/12/22 00:38:50;;;;;;;5.20;2.37;;;0.50;99.90;;;;;;4952853;28;20414;-68
2021/12/22 00:41:15;;;;;;;3.07;2.87;;;0.80;99.90;;;;;;4952977;28;20425;-68
2021/12/22 00:43:41;;;;;;;4.13;3.73;;;0.80;99.90;;;;;;4953266;29;20406;-69
2021/12/22 00:46:08;;;;;;;3.13;2.37;;;0.60;99.90;;;;;;4952956;28;20600;-69
2021/12/22 00:48:33;;;;;;;3.70;2.60;;;0.60;99.90;;;;;;4953212;28;20174;-69
2021/12/22 00:51:00;;;;;;;2.90;2.50;;;0.60;99.90;;;;;;4952681;28;20928;-69
2021/12/22 00:53:25;;;;;;;3.50;3.10;;;0.60;99.90;;;;;;4953059;28;20190;-69
2021/12/22 00:55:51;;;;;;;5.80;3.07;;;0.50;99.90;;;;;;4952785;28;20936;-69
2021/12/22 00:58:17;;;;;;;6.00;3.10;;;0.60;99.90;;;;;;4951585;28;20278;-69
2021/12/22 01:00:46;;;;;;;3.57;2.60;;;0.60;99.90;;;;;;4953330;28;20194;-69
2021/12/22 01:03:11;;;;;;;4.93;3.10;;;0.60;99.90;;;;;;4956824;28;20832;-69
2021/12/22 01:05:37;;;;;;;4.70;2.97;;;0.50;99.90;;;;;;4955528;28;20520;-68
2021/12/22 01:08:03;;;;;;;4.17;3.50;;;0.50;99.90;;;;;;4957744;28;20197;-69
2021/12/22 01:10:30;;;;;;;4.00;2.90;;;0.50;99.90;;;;;;4957902;28;20589;-67
2021/12/22 01:12:57;;;;;;;4.47;3.60;;;0.60;99.90;;;;;;4957942;28;20681;-69
2021/12/22 01:15:24;;;;;;;5.73;4.53;;;0.60;99.90;;;;;;4957960;28;20504;-68
2021/12/22 01:17:59;;;;;;;4.33;2.87;;;0.50;99.90;;;;;;4957915;28;20429;-70
2021/12/22 01:20:37;;;;;;;7.07;3.50;;;0.50;99.90;;;;;;4957690;28;20428;-68
2021/12/22 01:23:03;;;;;;;2.50;2.30;;;0.50;99.90;;;;;;4957255;28;20406;-69
2021/12/22 01:25:32;;;;;;;4.83;1.73;;;0.50;99.90;;;;;;4957148;28;20414;-69
2021/12/22 01:27:58;;;;;;;2.40;2.23;;;0.40;99.90;;;;;;4956886;28;20877;-69
2021/12/22 01:30:26;;;;;;;2.57;2.37;;;0.30;99.90;;;;;;4957061;28;20437;-68
2021/12/22 01:32:55;;;;;;;3.67;2.53;;;0.40;99.90;;;;;;4956729;28;20194;-69
2021/12/22 01:35:24;;;;;;;2.60;2.40;;;0.40;99.90;;;;;;4959096;28;20457;-69
2021/12/22 01:37:50;;;;;;;2.33;2.13;;;0.40;99.90;;;;;;4956796;28;20410;-69
2021/12/22 01:40:16;;;;;;;3.77;2.40;;;0.60;99.90;;;;;;4956457;28;20437;-69
2021/12/22 01:42:43;;;;;;;3.00;2.33;;;0.50;99.90;;;;;;4956761;28;20179;-70
2021/12/22 01:45:36;;;;;;;3.30;3.03;;;0.60;99.90;;;;;;4956388;28;20784;-70
2021/12/22 01:50:53;;;;;;;15.03;2.53;;;0.60;99.90;;;;;;4956204;28;21010;-69
2021/12/22 01:53:21;;;;;;;3.00;1.70;;;0.60;99.90;;;;;;4955275;28;20420;-69
2021/12/22 01:56:32;;;;;;;2.80;2.47;;;0.60;99.90;;;;;;4955953;28;20528;-69
2021/12/22 01:58:59;;;;;;;4.03;2.97;;;0.50;99.90;;;;;;4956022;28;20421;-69
2021/12/22 02:01:27;;;;;;;3.37;2.67;;;0.60;99.90;;;;;;4956126;28;20434;-69
2021/12/22 02:03:53;;;;;;;2.03;1.83;;;0.60;99.90;;;;;;4956080;28;20853;-69
2021/12/22 02:06:20;;;;;;;4.03;2.90;;;0.60;99.90;;;;;;4955983;28;20497;-69
2021/12/22 02:08:46;;;;;;;2.50;2.30;;;0.60;99.90;;;;;;4956467;28;20951;-69
2021/12/22 02:11:16;;;;;;;6.80;3.50;;;0.60;99.90;;;;;;4955900;28;20426;-69
2021/12/22 02:13:45;;;;;;;4.63;2.50;;;0.60;99.90;;;;;;4954929;28;20573;-69
2021/12/22 02:16:14;;;;;;;4.50;4.10;;;0.70;99.90;;;;;;4955844;28;20489;-69
2021/12/22 02:18:44;;;;;;;5.73;3.53;;;0.60;99.90;;;;;;4955847;28;20425;-69
2021/12/22 02:21:10;;;;;;;4.20;3.67;;;0.70;99.90;;;;;;4955875;28;20496;-69
2021/12/22 02:23:36;;;;;;;3.77;2.83;;;0.70;99.90;;;;;;4956041;29;20414;-69
2021/12/22 02:26:13;;;;;;;4.40;3.80;;;0.80;99.90;;;;;;4955122;28;20253;-69
2021/12/22 02:28:44;;;;;;;5.10;4.17;;;0.80;99.90;;;;;;4955179;28;20414;-69
2021/12/22 02:31:14;;;;;;;5.20;2.00;;;0.70;99.90;;;;;;4955173;28;20786;-69
2021/12/22 02:33:42;;;;;;;9.23;3.63;;;0.70;99.90;;;;;;4954766;28;20825;-68
2021/12/22 02:36:22;;;;;;;1.83;1.57;;;0.60;99.90;;;;;;4954038;28;20421;-69
2021/12/22 02:38:55;;;;;;;3.30;2.83;;;0.60;99.90;;;;;;4955274;28;20487;-69
2021/12/22 02:41:26;;;;;;;8.83;4.53;;;0.70;99.90;;;;;;4963075;28;20978;-69
2021/12/22 02:43:54;;;;;;;4.50;4.03;;;0.70;99.90;;;;;;4974091;28;20409;-69
2021/12/22 02:46:31;;;;;;;2.77;2.57;;;0.70;99.90;;;;;;4974050;28;20417;-70
2021/12/22 02:48:59;;;;;;;6.73;3.37;;;0.70;99.90;;;;;;4974046;28;20411;-70
2021/12/22 02:51:29;;;;;;;3.50;2.60;;;0.70;99.90;;;;;;4994574;23;20501;-71
2021/12/22 02:56:51;;;;;;;3.90;2.60;;;0.70;99.90;;;;;;4974155;28;20413;-74
2021/12/22 02:59:48;;;;;;;4.20;2.43;;;0.70;99.90;;;;;;4974235;28;20412;-73
2021/12/22 03:03:01;;;;;;;3.77;1.77;;;0.70;99.90;;;;;;4973864;28;20429;-72
2021/12/22 03:05:03;;;;;;;3.43;2.90;;;0.80;99.90;;;;;;4975936;28;20416;-72
2021/12/22 03:07:31;;;;;;;2.43;2.03;;;0.80;99.90;;;;;;4974032;28;20728;-70
2021/12/22 03:10:00;;;;;;;4.07;3.60;;;0.80;99.90;;;;;;4973911;28;20847;-71
2021/12/22 03:12:29;;;;;;;4.70;2.60;;;0.80;99.90;;;;;;4973898;28;20437;-72
2021/12/22 03:14:54;;;;;;;3.00;2.67;;;0.80;99.90;;;;;;4973667;28;20512;-72
2021/12/22 03:17:20;;;;;;;4.60;3.53;;;0.70;99.90;;;;;;4973761;28;20409;-72
2021/12/22 03:19:45;;;;;;;3.27;2.97;;;0.80;99.90;;;;;;4973794;28;20253;-71
2021/12/22 03:22:12;;;;;;;7.53;3.27;;;0.80;99.90;;;;;;4973884;28;20190;-72
2021/12/22 03:24:39;;;;;;;4.07;2.60;;;0.80;99.90;;;;;;4973451;28;20214;-71
2021/12/22 03:27:07;;;;;;;7.40;3.50;;;0.70;99.90;;;;;;4973693;28;20468;-71
2021/12/22 03:29:36;;;;;;;2.43;2.23;;;0.70;99.90;;;;;;4973583;28;20413;-72
2021/12/22 03:32:03;;;;;;;11.47;3.70;;;0.70;99.90;;;;;;4973439;28;20428;-72
2021/12/22 03:34:28;;;;;;;3.93;2.33;;;0.70;99.90;;;;;;4973223;28;20463;-72
2021/12/22 03:36:54;;;;;;;3.10;2.77;;;0.80;99.90;;;;;;4973324;28;20458;-70
2021/12/22 03:39:20;;;;;;;3.33;3.07;;;0.70;99.90;;;;;;4973312;28;20201;-70
2021/12/22 03:41:47;;;;;;;5.77;3.00;;;0.60;99.90;;;;;;4973072;28;20672;-71
2021/12/22 03:44:13;;;;;;;6.20;3.60;;;0.60;99.90;;;;;;4973327;28;20416;-70
2021/12/22 03:46:39;;;;;;;3.90;1.97;;;0.70;99.90;;;;;;4973026;28;20907;-71
2021/12/22 03:49:07;;;;;;;2.20;2.07;;;0.60;99.90;;;;;;4973191;28;20503;-71
2021/12/22 03:51:33;;;;;;;3.13;2.30;;;0.70;99.90;;;;;;4972892;28;20538;-71
2021/12/22 03:54:00;;;;;;;2.60;2.13;;;0.60;99.90;;;;;;4972984;28;20484;-71
2021/12/22 03:56:25;;;;;;;1.87;1.77;;;0.70;99.90;;;;;;4972861;28;20532;-71
2021/12/22 03:58:51;;;;;;;3.07;1.57;;;0.70;99.90;;;;;;4973074;28;20431;-71
2021/12/22 04:01:16;;;;;;;1.50;1.40;;;0.60;99.90;;;;;;4971165;28;20189;-71
2021/12/22 04:03:45;;;;;;;3.10;2.00;;;0.60;99.90;;;;;;4972982;28;20173;-70
2021/12/22 04:06:10;;;;;;;4.03;2.97;;;0.60;99.90;;;;;;4972740;28;20595;-70
2021/12/22 04:08:36;;;;;;;1.27;1.20;;;0.60;99.90;;;;;;4972765;28;20405;-71
2021/12/22 04:11:02;;;;;;;1.80;1.57;;;0.60;99.90;;;;;;4972774;28;20217;-71
2021/12/22 04:13:27;;;;;;;2.00;1.80;;;0.70;99.90;;;;;;4972459;28;20169;-70
2021/12/22 04:15:53;;;;;;;4.30;2.00;;;0.60;99.90;;;;;;4972531;28;20243;-70
2021/12/22 04:18:20;;;;;;;1.40;1.30;;;0.60;99.90;;;;;;4972543;28;20173;-73
2021/12/22 04:20:45;;;;;;;3.33;2.00;;;0.60;99.90;;;;;;4972468;28;20193;-70
2021/12/22 04:23:11;;;;;;;17.30;2.10;;;0.60;99.90;;;;;;4987339;28;20892;-72
2021/12/22 04:25:37;;;;;;;1.67;1.50;;;0.50;99.90;;;;;;4972728;28;20189;-70
2021/12/22 04:28:07;;;;;;;3.70;3.43;;;0.60;99.90;;;;;;4972584;28;20260;-72
2021/12/22 04:30:38;;;;;;;9.03;2.00;;;0.70;99.90;;;;;;4972350;28;20432;-70
2021/12/22 04:33:04;;;;;;;1.53;1.43;;;0.60;99.90;;;;;;4972452;28;20405;-70
2021/12/22 04:35:30;;;;;;;2.60;2.40;;;0.60;99.90;;;;;;4971649;28;20471;-71
2021/12/22 04:37:56;;;;;;;2.70;2.50;;;0.60;99.90;;;;;;4972328;28;20409;-70
2021/12/22 04:40:22;;;;;;;1.30;1.20;;;0.50;99.90;;;;;;4970908;28;20500;-71
2021/12/22 04:42:48;;;;;;;2.27;1.90;;;0.50;99.90;;;;;;4972388;28;20409;-71
2021/12/22 04:45:14;;;;;;;4.70;1.80;;;0.50;99.90;;;;;;4972283;28;20421;-71
2021/12/22 04:47:40;;;;;;;1.33;1.23;;;0.40;99.90;;;;;;4972622;28;20174;-71
2021/12/22 04:50:12;;;;;;;1.30;1.20;;;0.40;99.90;;;;;;4972530;28;20415;-71
2021/12/22 04:52:48;;;;;;;1.73;1.63;;;0.40;99.90;;;;;;4971364;28;20433;-71
2021/12/22 04:55:14;;;;;;;2.03;1.47;;;0.40;99.90;;;;;;4972279;28;20456;-71
2021/12/22 04:57:40;;;;;;;1.37;1.27;;;0.40;99.90;;;;;;4972350;28;20819;-71
2021/12/22 05:00:10;;;;;;;2.40;1.90;;;0.30;99.90;;;;;;4972164;28;20409;-71
2021/12/22 05:02:35;;;;;;;1.03;0.90;;;0.20;99.90;;;;;;4972271;28;20177;-71
2021/12/22 05:05:01;;;;;;;1.40;1.33;;;0.30;99.90;;;;;;4972127;28;20803;-70
2021/12/22 05:07:27;;;;;;;1.47;1.17;;;0.20;99.90;;;;;;4972164;28;20177;-71
2021/12/22 05:09:52;;;;;;;1.73;1.43;;;0.20;99.90;;;;;;4972379;28;20409;-73
2021/12/22 05:12:18;;;;;;;1.83;1.73;;;0.20;99.90;;;;;;4971796;28;20336;-71
2021/12/22 05:14:47;;;;;;;3.30;1.80;;;0.20;99.90;;;;;;4972002;28;20236;-71
2021/12/22 05:17:20;;;;;;;3.23;1.87;;;0.20;99.90;;;;;;4972239;28;20158;-71
2021/12/22 05:19:46;;;;;;;1.60;1.50;;;0.20;99.90;;;;;;4972224;28;20441;-70
2021/12/22 05:22:11;;;;;;;1.70;1.30;;;0.20;99.90;;;;;;4970541;28;20468;-71
2021/12/22 05:24:37;;;;;;;2.50;2.30;;;0.30;99.90;;;;;;4971809;28;20552;-71
2021/12/22 05:27:03;;;;;;;1.40;1.30;;;0.20;99.90;;;;;;4971995;28;20181;-71
2021/12/22 05:29:29;;;;;;;1.27;1.23;;;0.20;99.90;;;;;;4972044;28;20270;-70
2021/12/22 05:31:56;;;;;;;3.00;2.47;;;0.30;99.90;;;;;;4971929;28;20790;-71
2021/12/22 05:34:21;;;;;;;5.07;1.53;;;0.20;99.90;;;;;;4972103;28;20209;-71
2021/12/22 05:36:47;;;;;;;2.13;2.00;;;0.20;99.90;;;;;;4971874;28;20420;-69
2021/12/22 05:39:13;;;;;;;2.70;2.20;;;0.20;99.90;;;;;;4971879;28;20169;-71
2021/12/22 05:41:38;;;;;;;2.63;2.43;;;0.20;99.90;;;;;;4972069;28;20655;-71
2021/12/22 05:44:04;;;;;;;6.60;2.67;;;0.30;99.90;;;;;;4971944;28;20534;-71
2021/12/22 05:46:29;;;;;;;2.03;1.83;;;0.20;99.90;;;;;;4971701;28;20305;-72
2021/12/22 05:48:55;;;;;;;4.23;2.00;;;0.20;99.90;;;;;;4975095;28;20205;-71
2021/12/22 05:51:22;;;;;;;2.00;1.90;;;0.10;99.90;;;;;;4975138;28;20220;-72
2021/12/22 05:53:48;;;;;;;3.60;2.73;;;0.20;99.90;;;;;;4974949;28;20641;-70
2021/12/22 05:56:13;;;;;;;5.23;2.47;;;0.10;99.90;;;;;;4976217;28;20475;-70
2021/12/22 05:58:39;;;;;;;2.97;2.47;;;0.10;99.90;;;;;;4975340;28;20474;-71
2021/12/22 06:01:04;;;;;;;2.60;1.57;;;0.10;99.90;;;;;;4975311;28;20236;-70
2021/12/22 06:03:30;;;;;;;5.13;2.90;;;0.00;99.90;;;;;;4974994;28;20169;-70
2021/12/22 06:05:55;;;;;;;3.73;3.43;;;0.00;99.90;;;;;;4975135;28;20281;-71
2021/12/22 06:08:21;;;;;;;3.70;2.80;;;-0.10;99.90;;;;;;4975049;28;20174;-71
2021/12/22 06:10:47;;;;;;;3.57;2.60;;;-0.10;99.90;;;;;;4974736;28;20448;-71
2021/12/22 06:13:12;;;;;;;3.47;1.77;;;-0.10;99.90;;;;;;4974695;28;20518;-71
2021/12/22 06:15:39;;;;;;;2.83;2.63;;;-0.20;99.90;;;;;;4974611;28;20660;-72
2021/12/22 06:18:05;;;;;;;3.17;2.87;;;-0.20;99.90;;;;;;4974949;28;20170;-72
2021/12/22 06:20:32;;;;;;;2.30;2.10;;;-0.30;99.90;;;;;;4974791;28;20483;-72
2021/12/22 06:22:58;;;;;;;7.40;3.07;;;-0.30;99.90;;;;;;4974667;28;20409;-71
2021/12/22 06:25:24;;;;;;;8.03;4.23;;;-0.30;99.90;;;;;;4974535;28;20414;-71
2021/12/22 06:27:50;;;;;;;5.00;4.00;;;-0.30;99.90;;;;;;4974738;28;20405;-72
2021/12/22 06:30:16;;;;;;;3.27;2.57;;;-0.30;99.90;;;;;;4974641;28;20401;-72
2021/12/22 06:32:42;;;;;;;3.73;3.00;;;-0.20;99.90;;;;;;4974202;28;20892;-71
2021/12/22 06:35:08;;;;;;;2.67;2.40;;;-0.20;99.90;;;;;;4989448;28;20464;-71
2021/12/22 06:37:34;;;;;;;6.13;3.20;;;-0.20;99.90;;;;;;4974698;28;20166;-71
2021/12/22 06:39:59;;;;;;;4.20;2.97;;;-0.20;99.90;;;;;;4974716;28;20484;-71
2021/12/22 06:42:25;;;;;;;4.90;2.87;;;-0.30;99.90;;;;;;4974583;28;20429;-71
2021/12/22 06:44:51;;;;;;;4.70;4.30;;;-0.40;99.90;;;;;;4974888;28;20209;-70
2021/12/22 06:47:17;;;;;;;3.00;2.80;;;-0.40;99.90;;;;;;4975176;28;20591;-71
2021/12/22 06:49:42;;;;;;;2.50;2.27;;;-0.50;99.90;;;;;;4975860;28;20413;-72
2021/12/22 06:52:08;;;;;;;3.20;2.90;;;-0.50;99.90;;;;;;4976401;28;20205;-71
2021/12/22 06:54:34;;;;;;;7.27;5.30;;;-0.50;99.90;;;;;;4977921;28;20558;-71
2021/12/22 06:57:00;;;;;;;2.63;2.43;;;-0.50;99.90;;;;;;4976692;28;20177;-72
2021/12/22 06:59:25;;;;;;;3.67;3.10;;;-0.60;99.90;;;;;;4975718;28;20173;-70
2021/12/22 07:01:51;;;;;;;4.23;3.20;;;-0.60;99.90;;;;;;4974922;28;20531;-72
2021/12/22 07:04:18;;;;;;;4.27;2.90;;;-0.50;99.90;;;;;;4976019;28;20260;-72
2021/12/22 07:06:44;;;;;;;3.60;3.40;;;-0.50;99.90;;;;;;4974620;28;20192;-70
2021/12/22 07:09:09;;;;;;;4.47;3.57;;;-0.60;99.90;;;;;;4975596;28;20778;-70
2021/12/22 07:11:36;;;;;;;4.07;3.13;;;-0.60;99.90;;;;;;4974652;28;20428;-70
2021/12/22 07:14:03;;;;;;;3.23;3.03;;;-0.60;99.90;;;;;;4973032;28;20636;-71
2021/12/22 07:16:29;;;;;;;6.50;5.03;;;-0.50;99.90;;;;;;4974175;28;20436;-71
2021/12/22 07:18:54;;;;;;;5.47;4.37;;;-0.50;99.90;;;;;;4972989;28;20414;-71
2021/12/22 07:21:20;;;;;;;4.80;3.07;;;-0.50;99.90;;;;;;4972748;28;20193;-70
2021/12/22 07:23:46;;;;;;;5.67;5.17;;;-0.60;99.90;;;;;;4974031;28;20178;-70
2021/12/22 07:26:13;;;;;;;2.10;1.73;;;-0.60;99.90;;;;;;4973958;28;20472;-71
2021/12/22 07:28:45;;;;;;;4.23;2.93;;;-0.60;99.90;;;;;;4974234;28;20336;-71
2021/12/22 07:31:11;;;;;;;4.57;3.67;;;-0.50;99.90;;;;;;4978142;28;20441;-72
2021/12/22 07:33:37;;;;;;;5.23;3.50;;;-0.50;99.90;;;;;;4979566;28;20412;-71
2021/12/22 07:36:05;;;;;;;5.00;4.50;;;-0.50;99.90;;;;;;4980266;28;20476;-71
2021/12/22 07:38:40;;;;;;;5.87;4.93;;;-0.50;99.90;;;;;;4979533;28;20673;-71
2021/12/22 07:41:07;;;;;;;6.47;3.87;;;-0.40;99.90;;;;;;4973625;28;20483;-71
2021/12/22 07:43:33;;;;;;;5.97;5.20;;;-0.50;99.90;;;;;;4973745;28;20417;-70
2021/12/22 07:45:58;;;;;;;4.30;3.13;;;-0.40;99.90;;;;;;4972129;28;20436;-70
2021/12/22 07:48:24;;;;;;;7.93;4.53;;;-0.40;99.90;;;;;;4973373;28;20425;-71
2021/12/22 07:50:50;;;;;;;6.07;2.33;;;-0.40;99.90;;;;;;4973646;28;20209;-71
2021/12/22 07:53:16;;;;;;;6.37;4.40;;;-0.40;99.90;;;;;;4973025;28;20239;-71
2021/12/22 07:55:42;;;;;;;4.83;4.17;;;-0.40;99.90;;;;;;4972813;28;20460;-71
2021/12/22 07:58:08;;;;;;;6.70;3.27;;;-0.30;99.90;;;;;;4973187;28;20501;-70
2021/12/22 08:00:34;;;;;;;5.40;4.10;;;-0.30;99.90;;;;;;4973028;28;20291;-71
2021/12/22 08:02:59;;;;;;;5.00;4.50;;;-0.30;99.90;;;;;;4973084;28;20444;-71
2021/12/22 08:05:25;;;;;;;2.70;2.27;;;-0.20;99.90;;;;;;4973154;28;20417;-71
2021/12/22 08:07:51;;;;;;;11.30;4.47;;;-0.10;99.90;;;;;;4973265;28;20191;-71
2021/12/22 08:10:16;;;;;;;3.53;3.23;;;-0.10;99.90;;;;;;4972582;28;20174;-71
2021/12/22 08:12:42;;;;;;;5.30;3.60;;;0.00;99.90;;;;;;4973043;28;20416;-71
2021/12/22 08:15:08;;;;;;;4.83;4.33;;;0.00;99.90;;;;;;4973464;28;20232;-71
2021/12/22 08:17:34;;;;;;;3.40;2.70;;;0.00;99.90;;;;;;4973524;28;20680;-72
2021/12/22 08:20:02;;;;;;;6.13;2.93;;;0.10;99.90;;;;;;4973669;28;20201;-71
2021/12/22 08:22:28;;;;;;;9.60;6.17;;;0.10;99.90;;;;;;4973814;28;20880;-72
2021/12/22 08:24:53;;;;;;;8.17;5.43;;;0.20;99.90;;;;;;4987441;28;20420;-70
2021/12/22 08:27:21;;;;;;;4.83;3.97;;;0.20;99.90;;;;;;4972904;28;20647;-71
2021/12/22 08:29:47;;;;;;;7.03;3.77;;;0.40;99.90;;;;;;4973505;28;20530;-71
2021/12/22 08:32:13;;;;;;;5.27;4.87;;;0.50;99.90;;;;;;4956533;28;20732;-71
2021/12/22 08:34:40;;;;;;;9.03;6.47;;;0.60;99.90;;;;;;4953753;28;20600;-72
2021/12/22 08:39:52;;;;;;;7.37;3.90;;;0.80;99.90;;;;;;4954164;28;20436;-71
2021/12/22 08:42:18;;;;;;;6.33;4.47;;;0.80;99.90;;;;;;4953905;28;20457;-73
2021/12/22 08:44:44;;;;;;;4.40;2.80;;;0.80;99.90;;;;;;4953584;28;20178;-71
2021/12/22 08:47:10;;;;;;;4.20;3.80;;;0.90;99.90;;;;;;4953610;28;20472;-71
2021/12/22 08:49:36;;;;;;;6.50;5.00;;;0.80;99.90;;;;;;4954155;28;20170;-71
2021/12/22 08:52:02;;;;;;;4.60;4.20;;;0.80;99.90;;;;;;4954115;28;20723;-70
2021/12/22 08:54:28;;;;;;;7.10;4.47;;;0.90;99.90;;;;;;4953964;28;20457;-70
2021/12/22 08:56:55;;;;;;;7.70;3.90;;;0.90;99.90;;;;;;4954141;29;20417;-70
2021/12/22 08:59:21;;;;;;;3.97;3.67;;;1.00;99.90;;;;;;4954087;28;20194;-71
2021/12/22 09:01:47;;;;;;;5.33;3.33;;;1.10;99.90;;;;;;4956440;29;20457;-70
2021/12/22 09:04:12;;;;;;;5.87;5.27;;;1.10;99.90;;;;;;4956628;28;20987;-71
2021/12/22 09:06:38;;;;;;;10.27;4.17;;;1.20;99.90;;;;;;4955784;28;20570;-71
2021/12/22 09:09:06;;;;;;;6.87;4.03;;;1.20;99.90;;;;;;4953487;29;20206;-75
2021/12/22 09:11:31;;;;;;;12.33;8.33;;;1.20;99.90;;;;;;4953673;28;20208;-73
2021/12/22 09:13:57;;;;;;;14.83;6.63;;;1.30;99.90;;;;;;4953072;28;20972;-73
2021/12/22 09:16:22;;;;;;;6.40;4.03;;;1.20;99.90;;;;;;4955346;28;20178;-70
2021/12/22 09:18:48;;;;;;;13.83;7.33;;;1.20;99.90;;;;;;4971416;28;20307;-79
2021/12/22 09:21:16;;;;;;;8.40;4.07;;;1.20;99.90;;;;;;4969875;28;20197;-70
2021/12/22 09:23:41;;;;;;;10.13;5.03;;;1.20;99.90;;;;;;4975226;28;20215;-71
2021/12/22 09:26:07;;;;;;;9.53;6.53;;;1.10;99.90;;;;;;4971730;28;20810;-72
2021/12/22 09:28:33;;;;;;;8.80;5.43;;;1.30;99.90;;;;;;4966865;28;20285;-69
2021/12/22 09:30:59;;;;;;;7.40;4.27;;;1.30;99.90;;;;;;4958701;28;20537;-70
2021/12/22 09:33:25;;;;;;;7.20;5.00;;;1.30;99.90;;;;;;4956688;29;20413;-70
2021/12/22 09:35:52;;;;;;;7.43;4.10;;;1.30;99.90;;;;;;4958961;28;20449;-70
2021/12/22 09:38:18;;;;;;;9.20;6.77;;;1.40;99.90;;;;;;4956528;29;20402;-70
2021/12/22 09:40:45;;;;;;;12.97;7.13;;;1.30;99.90;;;;;;4956338;28;21027;-70
2021/12/22 09:43:10;;;;;;;10.87;7.40;;;1.30;99.90;;;;;;4958132;28;20409;-71
2021/12/22 09:45:42;;;;;;;12.43;6.03;;;1.30;99.90;;;;;;4956553;28;20917;-72
2021/12/22 09:50:44;;;;;;;6.43;4.30;;;1.30;99.90;;;;;;4956067;28;20449;-71
2021/12/22 09:53:09;;;;;;;10.00;6.60;;;1.30;99.90;;;;;;4956529;28;20256;-71
2021/12/22 09:55:35;;;;;;;11.93;5.07;;;1.30;99.90;;;;;;4955882;28;20457;-71
2021/12/22 09:58:03;;;;;;;10.50;4.87;;;1.40;99.90;;;;;;4956567;29;20610;-70
2021/12/22 10:00:29;;;;;;;9.90;4.57;;;1.50;99.90;;;;;;4965055;28;20441;-70
2021/12/22 10:02:55;;;;;;;4.57;3.73;;;1.60;99.90;;;;;;4979324;28;20895;-71
2021/12/22 10:05:21;;;;;;;5.90;4.73;;;1.50;99.90;;;;;;4979084;28;20413;-70
2021/12/22 10:08:10;;;;;;;8.40;4.93;;;1.60;99.90;;;;;;4978874;28;20170;-70
2021/12/22 10:10:40;;;;;;;9.47;5.50;;;1.60;99.90;;;;;;4958145;28;20198;-73
2021/12/22 10:13:15;;;;;;;5.97;5.07;;;1.50;99.90;;;;;;4959384;28;20406;-71
2021/12/22 10:15:42;;;;;;;9.60;6.63;;;1.50;99.90;;;;;;4959085;28;20963;-71
2021/12/22 10:18:17;;;;;;;10.10;6.20;;;1.60;99.90;;;;;;4958806;28;20920;-69
2021/12/22 10:20:44;;;;;;;8.27;4.50;;;1.60;99.90;;;;;;4958415;28;20520;-70
2021/12/22 10:23:28;;;;;;;9.70;7.00;;;1.60;99.90;;;;;;4968395;28;20409;-70
2021/12/22 10:25:56;;;;;;;7.83;5.90;;;1.60;99.90;;;;;;4966491;28;20501;-71
2021/12/22 10:28:23;;;;;;;8.83;6.20;;;1.50;99.90;;;;;;4973235;28;20432;-69
2021/12/22 10:30:55;;;;;;;6.70;5.60;;;1.50;99.90;;;;;;4977593;28;20429;-70
2021/12/22 10:33:23;;;;;;;23.77;7.50;;;1.40;99.90;;;;;;4975487;28;20454;-70
2021/12/22 10:35:58;;;;;;;10.87;7.30;;;1.50;99.90;;;;;;4976916;28;21004;-70
2021/12/22 10:38:27;;;;;;;8.63;6.47;;;1.50;99.90;;;;;;4974243;28;20400;-69
2021/12/22 10:40:56;;;;;;;9.43;5.57;;;1.60;99.90;;;;;;4974309;28;20524;-70
2021/12/22 10:43:24;;;;;;;7.60;4.87;;;1.50;99.90;;;;;;4974347;28;20460;-70
2021/12/22 10:45:55;;;;;;;8.80;7.87;;;1.60;99.90;;;;;;4973052;28;20421;-70
2021/12/22 10:51:08;;;;;;;6.73;4.77;;;1.50;99.90;;;;;;4974152;28;20869;-70
2021/12/22 10:53:43;;;;;;;12.40;9.77;;;1.60;99.90;;;;;;4974383;28;20409;-72
2021/12/22 10:56:08;;;;;;;19.53;6.80;;;1.50;99.90;;;;;;4973199;28;20464;-71
2021/12/22 10:58:34;;;;;;;6.40;5.20;;;1.60;99.90;;;;;;4974922;28;20438;-72
2021/12/22 11:01:13;;;;;;;12.00;6.07;;;1.60;99.90;;;;;;4974364;28;20284;-71
2021/12/22 11:03:48;;;;;;;11.80;5.70;;;1.70;99.90;;;;;;4957371;28;20556;-73
2021/12/22 11:06:15;;;;;;;7.67;6.63;;;1.60;99.90;;;;;;4955494;28;20919;-71
2021/12/22 11:08:41;;;;;;;11.57;7.93;;;1.60;99.90;;;;;;4973219;28;20417;-72
2021/12/22 11:11:14;;;;;;;16.53;8.73;;;1.70;99.90;;;;;;4974154;28;20512;-73
2021/12/22 11:13:41;;;;;;;8.13;5.63;;;1.80;99.90;;;;;;4975987;28;20954;-71
2021/12/22 11:16:13;;;;;;;7.83;6.87;;;1.70;99.90;;;;;;4975793;28;20488;-71
2021/12/22 11:18:40;;;;;;;6.83;4.83;;;1.80;99.90;;;;;;4976877;28;20405;-71
2021/12/22 11:21:30;;;;;;;6.73;5.77;;;1.90;99.90;;;;;;4973731;28;20433;-72
2021/12/22 11:23:56;;;;;;;9.50;7.03;;;1.80;99.90;;;;;;4973708;28;20440;-71
2021/12/22 11:26:21;;;;;;;7.53;4.97;;;1.90;99.90;;;;;;4973629;28;20445;-75
2021/12/22 11:28:48;;;;;;;9.63;6.57;;;1.90;99.90;;;;;;4973671;28;20174;-71
2021/12/22 11:31:14;;;;;;;7.57;4.90;;;1.90;99.90;;;;;;4973466;28;20205;-70
2021/12/22 11:33:40;;;;;;;10.07;4.03;;;2.00;99.90;;;;;;4973513;28;20423;-70
2021/12/22 11:36:08;;;;;;;5.73;5.13;;;1.90;99.90;;;;;;4992733;28;20290;-70
2021/12/22 11:38:34;;;;;;;5.80;4.80;;;1.80;99.90;;;;;;4993021;28;20404;-69
2021/12/22 11:41:13;;;;;;;9.30;7.17;;;1.90;99.90;;;;;;4986041;28;20532;-71
2021/12/22 11:43:41;;;;;;;5.50;5.00;;;1.90;99.90;;;;;;4973301;28;20174;-71
2021/12/22 11:46:07;;;;;;;11.20;5.40;;;1.90;99.90;;;;;;4972942;28;21054;-70
2021/12/22 11:48:34;;;;;;;6.77;4.70;;;2.00;99.90;;;;;;4973237;28;20409;-70
2021/12/22 11:51:00;;;;;;;7.70;5.03;;;2.10;99.90;;;;;;4972675;28;20495;-70
2021/12/22 11:53:46;;;;;;;6.33;5.73;;;2.10;99.90;;;;;;4973176;28;20453;-71
2021/12/22 11:56:37;;;;;;;8.40;6.53;;;2.10;99.90;;;;;;4967021;28;20473;-70
2021/12/22 11:59:03;;;;;;;7.17;4.63;;;2.20;99.90;;;;;;4955108;28;20444;-70
2021/12/22 12:01:29;;;;;;;6.30;4.60;;;2.30;99.90;;;;;;4965928;28;20473;-71
2021/12/22 12:04:15;;;;;;;10.47;4.97;;;2.30;99.90;;;;;;4969642;28;20452;-71
2021/12/22 12:06:51;;;;;;;8.23;6.37;;;2.30;99.90;;;;;;4972532;28;20189;-71
2021/12/22 12:09:22;;;;;;;9.30;5.10;;;2.30;99.90;;;;;;4972984;28;20401;-70
2021/12/22 12:11:53;;;;;;;10.13;5.90;;;2.20;99.90;;;;;;4972892;28;20839;-70
2021/12/22 12:23:29;;;;;;;24.30;5.90;;;2.10;99.90;;;;;;4973958;28;20428;-72
2021/12/22 12:25:55;;;;;;;10.43;6.27;;;2.20;99.90;;;;;;4973654;28;20432;-71
2021/12/22 12:28:22;;;;;;;7.03;5.23;;;2.20;99.90;;;;;;4972529;28;20429;-71
2021/12/22 12:30:54;;;;;;;9.70;5.77;;;2.20;99.90;;;;;;4973349;28;20428;-72
2021/12/22 12:33:31;;;;;;;5.63;4.80;;;2.30;99.90;;;;;;4973032;28;20432;-71
2021/12/22 12:36:04;;;;;;;8.63;5.87;;;2.20;99.90;;;;;;4990912;28;20451;-71
2021/12/22 12:38:47;;;;;;;7.60;4.30;;;2.20;99.90;;;;;;4992843;28;20442;-70
2021/12/22 12:41:18;;;;;;;11.30;6.20;;;2.20;99.90;;;;;;4992015;28;20578;-70
2021/12/22 12:43:51;;;;;;;5.33;3.63;;;2.20;99.90;;;;;;4992145;28;20525;-70
2021/12/22 12:46:23;;;;;;;5.83;4.30;;;2.10;99.90;;;;;;4991850;28;20470;-70
2021/12/22 12:48:49;;;;;;;11.63;5.70;;;2.00;99.90;;;;;;4992041;28;20446;-70
2021/12/22 12:51:45;;;;;;;6.47;4.83;;;2.10;99.90;;;;;;4991750;28;20497;-70
2021/12/22 12:54:16;;;;;;;9.77;5.97;;;2.00;99.90;;;;;;4984044;28;20557;-70
2021/12/22 12:56:54;;;;;;;7.30;5.10;;;2.00;99.90;;;;;;4991666;28;20453;-71
2021/12/22 12:59:27;;;;;;;5.27;4.77;;;2.20;99.90;;;;;;4995947;28;20434;-71
2021/12/22 13:01:52;;;;;;;13.20;6.20;;;2.10;99.90;;;;;;4995997;28;20514;-70
2021/12/22 13:04:38;;;;;;;7.37;4.50;;;2.20;99.90;;;;;;4995545;28;20455;-71
2021/12/22 13:07:09;;;;;;;6.20;3.40;;;2.20;99.90;;;;;;4995834;28;20165;-71
2021/12/22 13:09:40;;;;;;;7.97;7.10;;;2.10;99.90;;;;;;4995643;28;20543;-70
2021/12/22 13:12:20;;;;;;;5.63;4.57;;;2.10;99.90;;;;;;4995512;28;20431;-69
2021/12/22 13:17:36;;;;;;;11.00;6.27;;;2.00;99.90;;;;;;4995488;28;20500;-70
2021/12/22 13:20:05;;;;;;;7.50;5.30;;;2.00;99.90;;;;;;4995538;28;20412;-70
2021/12/22 13:22:33;;;;;;;7.63;5.03;;;1.90;99.90;;;;;;4995111;28;20438;-71
2021/12/22 13:25:20;;;;;;;8.23;6.23;;;1.90;99.90;;;;;;4995161;28;20969;-71
2021/12/22 13:27:48;;;;;;;6.20;5.00;;;2.00;99.90;;;;;;4995424;28;20431;-69